Time;durP1;ratioP1;P1;durP2;ratioP2;P2;SDS_P1;SDS_P2;PMS_P1;PMS_P2;Temp;Humidity;BMP_temperature;BMP_pressure;BME280_temperature;BME280_humidity;BME280_pressure;Samples;Min_cycle;Max_cycle;Signal;HPM_P1;HPM_P2
2023/01/24 00:01:21;;;;;;;48.67;16.20;;;;;;;;;;5028355;28;20045;-79
2023/01/24 00:03:48;;;;;;;51.22;16.15;;;;;;;;;;5028047;28;20079;-79
2023/01/24 00:06:15;;;;;;;42.60;15.88;;;;;;;;;;5028069;28;20050;-78
2023/01/24 00:08:41;;;;;;;51.63;16.08;;;;;;;;;;5029065;28;20084;-78
2023/01/24 00:11:10;;;;;;;51.05;17.05;;;;;;;;;;5026419;28;20077;-79
2023/01/24 00:13:36;;;;;;;49.92;16.63;;;;;;;;;;5018371;28;20505;-78
2023/01/24 00:16:08;;;;;;;46.85;15.60;;;;;;;;;;5031920;28;20050;-77
2023/01/24 00:18:34;;;;;;;56.28;16.05;;;;;;;;;;5030423;28;20057;-79
2023/01/24 00:21:09;;;;;;;53.35;17.38;;;;;;;;;;5032029;28;20053;-79
2023/01/24 00:23:36;;;;;;;47.30;16.17;;;;;;;;;;5030646;28;20112;-78
2023/01/24 00:26:03;;;;;;;46.80;15.68;;;;;;;;;;5030563;28;20069;-78
2023/01/24 00:28:30;;;;;;;46.63;15.98;;;;;;;;;;5031181;28;20061;-78
2023/01/24 00:30:56;;;;;;;46.47;15.77;;;;;;;;;;5031832;28;20232;-79
2023/01/24 00:33:23;;;;;;;47.92;17.35;;;;;;;;;;5031781;28;20441;-79
2023/01/24 00:35:50;;;;;;;50.90;17.27;;;;;;;;;;5032328;28;20146;-78
2023/01/24 00:38:17;;;;;;;52.03;17.75;;;;;;;;;;5030165;28;20045;-78
2023/01/24 00:40:43;;;;;;;55.15;18.05;;;;;;;;;;5029962;28;20046;-78
2023/01/24 00:43:10;;;;;;;56.65;18.15;;;;;;;;;;5031880;28;20045;-78
2023/01/24 00:45:36;;;;;;;51.72;17.83;;;;;;;;;;5031624;28;20073;-78
2023/01/24 00:48:08;;;;;;;55.65;17.48;;;;;;;;;;5031613;28;20049;-78
2023/01/24 00:50:34;;;;;;;53.60;17.33;;;;;;;;;;5032343;28;20352;-78
2023/01/24 00:53:01;;;;;;;59.03;18.25;;;;;;;;;;5029577;28;20053;-78
2023/01/24 00:55:28;;;;;;;52.38;17.30;;;;;;;;;;5035739;28;20498;-79
2023/01/24 00:57:54;;;;;;;52.75;17.92;;;;;;;;;;5034641;28;20049;-79
2023/01/24 01:00:21;;;;;;;60.20;19.67;;;;;;;;;;5035296;28;20137;-79
2023/01/24 01:02:48;;;;;;;56.30;18.73;;;;;;;;;;5035918;28;20132;-79
2023/01/24 01:05:15;;;;;;;63.45;20.15;;;;;;;;;;5035038;28;20049;-79
2023/01/24 01:07:41;;;;;;;64.90;20.08;;;;;;;;;;5034912;28;20057;-79
2023/01/24 01:10:08;;;;;;;57.70;18.65;;;;;;;;;;5034582;28;20049;-80
2023/01/24 01:12:35;;;;;;;51.20;18.75;;;;;;;;;;5035598;28;20081;-77
2023/01/24 01:15:04;;;;;;;61.05;19.08;;;;;;;;;;5036182;28;20469;-79
2023/01/24 01:17:30;;;;;;;61.20;19.60;;;;;;;;;;5017975;28;20057;-78
2023/01/24 01:19:58;;;;;;;52.25;17.73;;;;;;;;;;4999218;28;20116;-77
2023/01/24 01:22:25;;;;;;;57.72;18.42;;;;;;;;;;5016784;28;20100;-78
2023/01/24 01:24:51;;;;;;;60.13;19.05;;;;;;;;;;5016453;28;20060;-79
2023/01/24 01:27:18;;;;;;;59.83;19.33;;;;;;;;;;5017889;28;20084;-78
2023/01/24 01:29:44;;;;;;;58.35;19.58;;;;;;;;;;5016066;28;20131;-79
2023/01/24 01:32:10;;;;;;;62.17;19.55;;;;;;;;;;5017145;28;20117;-79
2023/01/24 01:34:46;;;;;;;56.42;19.02;;;;;;;;;;5015059;28;20090;-80
2023/01/24 01:37:13;;;;;;;64.97;19.67;;;;;;;;;;5019499;28;20480;-79
2023/01/24 01:39:40;;;;;;;62.42;19.17;;;;;;;;;;5015357;28;20096;-78
2023/01/24 01:42:06;;;;;;;52.28;18.50;;;;;;;;;;5014892;28;20045;-78
2023/01/24 01:44:40;;;;;;;52.60;18.90;;;;;;;;;;5016211;28;20496;-78
2023/01/24 01:47:25;;;;;;;60.60;18.92;;;;;;;;;;5014687;28;20085;-81
2023/01/24 01:50:01;;;;;;;60.03;20.15;;;;;;;;;;5014206;28;20081;-79
2023/01/24 01:52:27;;;;;;;;;;;;;;;;;;5014191;28;20074;-79
2023/01/24 01:54:57;;;;;;;53.22;18.33;;;;;;;;;;5016872;28;20067;-79
2023/01/24 01:57:26;;;;;;;55.20;18.85;;;;;;;;;;5014995;28;20049;-80
2023/01/24 02:00:15;;;;;;;59.95;18.95;;;;;;;;;;5020794;28;20057;-78
2023/01/24 02:02:45;;;;;;;65.40;20.00;;;;;;;;;;5012364;28;20103;-79
2023/01/24 02:05:13;;;;;;;59.33;20.17;;;;;;;;;;5022055;28;20145;-79
2023/01/24 02:07:59;;;;;;;66.75;20.30;;;;;;;;;;5020272;28;20065;-78
2023/01/24 02:11:37;;;;;;;60.88;19.50;;;;;;;;;;5021059;28;20100;-79
2023/01/24 02:13:14;;;;;;;63.45;20.08;;;;;;;;;;5024856;28;20117;-78
2023/01/24 02:16:02;;;;;;;63.17;19.85;;;;;;;;;;5038706;28;20048;-81
2023/01/24 02:18:33;;;;;;;60.53;18.92;;;;;;;;;;5043331;28;20073;-79
2023/01/24 02:21:07;;;;;;;60.72;19.55;;;;;;;;;;5044714;28;20049;-78
2023/01/24 02:23:43;;;;;;;56.88;19.42;;;;;;;;;;5045080;28;20050;-78
2023/01/24 02:26:10;;;;;;;68.15;20.30;;;;;;;;;;5043194;28;20053;-79
2023/01/24 02:28:38;;;;;;;65.68;20.73;;;;;;;;;;5035337;28;20057;-78
2023/01/24 02:31:05;;;;;;;68.45;20.60;;;;;;;;;;5019295;28;20081;-79
2023/01/24 02:33:32;;;;;;;67.85;20.60;;;;;;;;;;5019599;28;20156;-81
2023/01/24 02:36:31;;;;;;;68.40;20.42;;;;;;;;;;5036799;28;20085;-81
2023/01/24 02:39:04;;;;;;;64.63;19.45;;;;;;;;;;5007805;28;20411;-80
2023/01/24 02:41:51;;;;;;;71.53;20.90;;;;;;;;;;5019901;28;20076;-80
2023/01/24 02:44:30;;;;;;;63.17;20.38;;;;;;;;;;5020221;28;20072;-81
2023/01/24 02:46:56;;;;;;;71.63;20.95;;;;;;;;;;5037709;28;20049;-79
2023/01/24 02:49:23;;;;;;;62.58;20.55;;;;;;;;;;5037226;28;20064;-80
2023/01/24 02:54:48;;;;;;;75.65;20.90;;;;;;;;;;5036402;28;20051;-80
2023/01/24 03:00:03;;;;;;;71.80;20.33;;;;;;;;;;5036230;28;20092;-79
2023/01/24 03:02:29;;;;;;;67.85;19.73;;;;;;;;;;5035546;28;20049;-80
2023/01/24 03:04:56;;;;;;;60.17;18.23;;;;;;;;;;5034749;28;20092;-80
2023/01/24 03:07:22;;;;;;;59.03;19.73;;;;;;;;;;5035844;28;20148;-80
2023/01/24 03:09:51;;;;;;;66.95;19.30;;;;;;;;;;5035268;28;20155;-80
2023/01/24 03:34:29;;;;;;;79.70;21.42;;;;;;;;;;5026387;28;20498;-79
2023/01/24 03:36:55;;;;;;;81.25;21.30;;;;;;;;;;5023237;28;20053;-77
2023/01/24 03:42:09;;;;;;;79.07;22.40;;;;;;;;;;5013039;28;20188;-79
2023/01/24 03:44:36;;;;;;;73.10;22.02;;;;;;;;;;5013680;28;20289;-77
2023/01/24 03:47:02;;;;;;;86.70;22.58;;;;;;;;;;5014551;28;20538;-78
2023/01/24 03:52:31;;;;;;;76.38;21.90;;;;;;;;;;5014933;28;20045;-78
2023/01/24 03:55:00;;;;;;;77.43;21.80;;;;;;;;;;5014844;28;20266;-78
2023/01/24 03:57:28;;;;;;;80.15;21.08;;;;;;;;;;5014474;28;20050;-78
2023/01/24 03:59:55;;;;;;;69.22;20.10;;;;;;;;;;5015290;28;20142;-79
2023/01/24 04:02:21;;;;;;;67.07;19.77;;;;;;;;;;5014722;28;20050;-78
2023/01/24 04:07:35;;;;;;;68.20;19.88;;;;;;;;;;5015278;28;20355;-78
2023/01/24 04:10:02;;;;;;;70.13;21.23;;;;;;;;;;5018177;28;20050;-78
2023/01/24 04:12:28;;;;;;;71.90;20.75;;;;;;;;;;5012853;28;20080;-78
2023/01/24 04:14:55;;;;;;;67.47;20.55;;;;;;;;;;5031513;28;20057;-79
2023/01/24 04:17:22;;;;;;;65.78;20.63;;;;;;;;;;5015719;28;20045;-78
2023/01/24 04:19:48;;;;;;;73.85;19.42;;;;;;;;;;5033024;28;20630;-79
2023/01/24 04:22:15;;;;;;;97.25;21.85;;;;;;;;;;5014881;28;20068;-78
2023/01/24 04:24:42;;;;;;;80.97;20.35;;;;;;;;;;5015419;28;20041;-78
2023/01/24 04:27:09;;;;;;;86.55;19.67;;;;;;;;;;5035979;28;20493;-78
2023/01/24 04:29:36;;;;;;;95.18;22.02;;;;;;;;;;5036176;28;20045;-79
2023/01/24 04:32:02;;;;;;;76.15;21.65;;;;;;;;;;5024813;28;20055;-79
2023/01/24 04:34:29;;;;;;;74.10;21.00;;;;;;;;;;5028915;28;20038;-80
2023/01/24 04:36:55;;;;;;;72.82;21.05;;;;;;;;;;5042940;28;20042;-78
2023/01/24 04:39:22;;;;;;;90.38;20.67;;;;;;;;;;5022300;28;20060;-80
2023/01/24 04:41:48;;;;;;;86.88;21.02;;;;;;;;;;5014922;28;20045;-78
2023/01/24 04:44:15;;;;;;;78.18;21.63;;;;;;;;;;5013934;28;20498;-79
2023/01/24 04:46:41;;;;;;;84.32;20.63;;;;;;;;;;4996880;28;20052;-79
2023/01/24 04:49:07;;;;;;;84.35;21.65;;;;;;;;;;5013635;28;20049;-79
2023/01/24 04:51:34;;;;;;;79.45;21.38;;;;;;;;;;5025459;28;20137;-79
2023/01/24 04:54:00;;;;;;;81.80;21.55;;;;;;;;;;5033121;28;20108;-79
2023/01/24 04:56:27;;;;;;;83.97;22.20;;;;;;;;;;5025059;28;21036;-79
2023/01/24 04:58:53;;;;;;;87.47;21.70;;;;;;;;;;4996586;28;20050;-78
2023/01/24 05:01:19;;;;;;;76.35;20.83;;;;;;;;;;4999291;28;20045;-79
2023/01/24 05:03:46;;;;;;;82.85;20.83;;;;;;;;;;5032874;28;20042;-79
2023/01/24 05:06:12;;;;;;;83.70;20.63;;;;;;;;;;5033246;28;20049;-78
2023/01/24 05:08:39;;;;;;;79.82;21.25;;;;;;;;;;5015144;28;20049;-78
2023/01/24 05:11:05;;;;;;;92.50;20.60;;;;;;;;;;5032350;28;20080;-79
2023/01/24 05:13:31;;;;;;;82.45;20.60;;;;;;;;;;5032965;28;20502;-79
2023/01/24 05:15:58;;;;;;;86.80;21.23;;;;;;;;;;5033096;28;20045;-79
2023/01/24 05:18:24;;;;;;;81.90;20.83;;;;;;;;;;5033553;28;20049;-79
2023/01/24 05:20:50;;;;;;;81.25;20.75;;;;;;;;;;5033079;28;20060;-79
2023/01/24 05:23:20;;;;;;;80.18;21.50;;;;;;;;;;5032540;28;20041;-79
2023/01/24 05:25:47;;;;;;;74.20;20.75;;;;;;;;;;5030402;28;20049;-77
2023/01/24 05:28:13;;;;;;;75.25;20.27;;;;;;;;;;5025887;28;20046;-77
2023/01/24 05:30:40;;;;;;;74.95;20.55;;;;;;;;;;5028206;28;20045;-77
2023/01/24 05:33:06;;;;;;;70.45;20.38;;;;;;;;;;5027515;28;20454;-77
2023/01/24 05:35:32;;;;;;;71.32;20.48;;;;;;;;;;5027420;28;20046;-79
2023/01/24 05:37:59;;;;;;;80.07;20.30;;;;;;;;;;5002264;28;20055;-78
2023/01/24 05:40:31;;;;;;;72.65;20.88;;;;;;;;;;5015466;28;20569;-79
2023/01/24 05:42:57;;;;;;;74.95;21.02;;;;;;;;;;5015909;28;20094;-77
2023/01/24 05:45:24;;;;;;;76.63;20.52;;;;;;;;;;5015884;28;20063;-79
2023/01/24 05:47:51;;;;;;;76.53;19.95;;;;;;;;;;5015552;28;20076;-78
2023/01/24 05:50:17;;;;;;;79.38;20.55;;;;;;;;;;5013244;28;20054;-78
2023/01/24 05:52:43;;;;;;;76.55;19.90;;;;;;;;;;5010762;28;20136;-81
2023/01/24 05:55:10;;;;;;;69.05;20.70;;;;;;;;;;5029778;28;20452;-78
2023/01/24 05:57:37;;;;;;;69.32;19.55;;;;;;;;;;5022096;28;20497;-78
2023/01/24 06:00:04;;;;;;;73.35;20.77;;;;;;;;;;5006772;28;20081;-79
2023/01/24 06:02:30;;;;;;;83.43;20.85;;;;;;;;;;5024394;28;20046;-78
2023/01/24 06:04:57;;;;;;;85.43;23.48;;;;;;;;;;5004899;28;20061;-78
2023/01/24 06:07:23;;;;;;;74.57;20.17;;;;;;;;;;5016333;28;20068;-79
2023/01/24 06:09:50;;;;;;;92.15;22.27;;;;;;;;;;5040193;28;20061;-79
2023/01/24 06:12:16;;;;;;;78.70;20.67;;;;;;;;;;5038594;28;20052;-78
2023/01/24 06:14:42;;;;;;;75.60;20.73;;;;;;;;;;5033286;28;20055;-78
2023/01/24 06:17:09;;;;;;;83.53;22.90;;;;;;;;;;5032845;28;20068;-78
2023/01/24 06:19:35;;;;;;;85.97;22.17;;;;;;;;;;5032050;28;20053;-78
2023/01/24 06:22:20;;;;;;;82.47;21.25;;;;;;;;;;5033145;28;20059;-79
2023/01/24 06:24:46;;;;;;;72.15;19.75;;;;;;;;;;5013725;28;20064;-78
2023/01/24 06:27:13;;;;;;;67.45;19.65;;;;;;;;;;5014961;28;20128;-79
2023/01/24 06:29:39;;;;;;;82.18;22.55;;;;;;;;;;5032430;28;20061;-80
2023/01/24 06:32:25;;;;;;;86.78;20.52;;;;;;;;;;5016222;28;20056;-79
2023/01/24 06:35:15;;;;;;;81.97;20.42;;;;;;;;;;5016208;28;20543;-79
2023/01/24 06:37:44;;;;;;;71.82;20.38;;;;;;;;;;5033318;28;20052;-79
2023/01/24 06:40:12;;;;;;;86.45;21.33;;;;;;;;;;5033970;28;20133;-80
2023/01/24 06:42:38;;;;;;;81.25;20.95;;;;;;;;;;5036163;28;20152;-80
2023/01/24 06:45:06;;;;;;;73.22;20.02;;;;;;;;;;5033367;28;20092;-80
2023/01/24 06:47:37;;;;;;;86.45;21.08;;;;;;;;;;5033776;28;20052;-79
2023/01/24 06:50:06;;;;;;;79.93;21.33;;;;;;;;;;5016798;28;20099;-80
2023/01/24 06:52:32;;;;;;;72.97;20.48;;;;;;;;;;5015997;28;20149;-79
2023/01/24 06:54:59;;;;;;;70.78;21.00;;;;;;;;;;5033631;28;20053;-81
2023/01/24 06:57:25;;;;;;;76.75;20.98;;;;;;;;;;5033130;28;20060;-79
2023/01/24 06:59:51;;;;;;;80.53;22.08;;;;;;;;;;5032837;28;20050;-79
2023/01/24 07:02:18;;;;;;;82.32;21.05;;;;;;;;;;5034062;28;20497;-78
2023/01/24 07:04:44;;;;;;;75.03;20.60;;;;;;;;;;5037107;28;20053;-79
2023/01/24 07:07:11;;;;;;;81.82;20.17;;;;;;;;;;5025346;28;20140;-79
2023/01/24 07:09:37;;;;;;;83.60;22.52;;;;;;;;;;5035483;28;20049;-79
2023/01/24 07:12:04;;;;;;;71.97;19.48;;;;;;;;;;5032937;28;20045;-79
2023/01/24 07:14:30;;;;;;;75.22;20.38;;;;;;;;;;5033244;28;20053;-79
2023/01/24 07:16:56;;;;;;;81.28;21.73;;;;;;;;;;5033829;28;20045;-78
2023/01/24 07:19:25;;;;;;;70.32;19.88;;;;;;;;;;5030303;28;20133;-79
2023/01/24 07:21:53;;;;;;;72.78;19.77;;;;;;;;;;5033432;28;20053;-79
2023/01/24 07:24:21;;;;;;;75.47;20.38;;;;;;;;;;5032443;28;20501;-79
2023/01/24 07:26:50;;;;;;;73.03;20.58;;;;;;;;;;5032174;28;20088;-79
2023/01/24 07:29:18;;;;;;;76.60;19.73;;;;;;;;;;5031166;28;20440;-78
2023/01/24 07:31:44;;;;;;;64.88;19.50;;;;;;;;;;5034279;28;20073;-79
2023/01/24 07:34:10;;;;;;;71.70;19.98;;;;;;;;;;5036932;28;20060;-79
2023/01/24 07:36:42;;;;;;;71.90;20.67;;;;;;;;;;5032995;28;20516;-79
2023/01/24 07:39:09;;;;;;;77.82;20.83;;;;;;;;;;5034313;28;20060;-78
2023/01/24 07:41:35;;;;;;;68.50;20.13;;;;;;;;;;5035582;28;20088;-78
2023/01/24 07:44:05;;;;;;;74.10;19.95;;;;;;;;;;5033010;28;20051;-78
2023/01/24 07:46:32;;;;;;;62.60;18.50;;;;;;;;;;5036780;28;20053;-78
2023/01/24 07:48:59;;;;;;;71.75;19.75;;;;;;;;;;5037487;28;20059;-78
2023/01/24 07:51:25;;;;;;;69.80;19.77;;;;;;;;;;5032437;28;20136;-80
2023/01/24 07:53:52;;;;;;;68.75;19.10;;;;;;;;;;5033206;28;20045;-77
2023/01/24 07:56:18;;;;;;;61.90;17.75;;;;;;;;;;5038636;28;20095;-78
2023/01/24 07:58:51;;;;;;;63.50;18.45;;;;;;;;;;5031888;28;20075;-79
2023/01/24 08:01:21;;;;;;;68.53;19.80;;;;;;;;;;5032320;28;20151;-78
2023/01/24 08:03:49;;;;;;;67.53;17.70;;;;;;;;;;5033901;28;20045;-78
2023/01/24 08:06:15;;;;;;;59.53;17.40;;;;;;;;;;5035876;28;20053;-78
2023/01/24 08:08:41;;;;;;;60.65;17.55;;;;;;;;;;5031397;28;20056;-78
2023/01/24 08:11:11;;;;;;;60.20;17.40;;;;;;;;;;5033198;28;20060;-78
2023/01/24 08:13:37;;;;;;;54.22;16.80;;;;;;;;;;5031645;28;20091;-78
2023/01/24 08:16:04;;;;;;;62.63;17.73;;;;;;;;;;5024392;28;20053;-77
2023/01/24 08:18:30;;;;;;;60.40;17.52;;;;;;;;;;5033092;28;20485;-78
2023/01/24 08:20:56;;;;;;;59.22;17.25;;;;;;;;;;5034209;28;20285;-80
2023/01/24 08:23:23;;;;;;;57.10;16.90;;;;;;;;;;5032515;28;20049;-78
2023/01/24 08:25:49;;;;;;;55.85;17.58;;;;;;;;;;5033366;28;20144;-78
2023/01/24 08:28:16;;;;;;;53.75;16.65;;;;;;;;;;5030963;28;20489;-78
2023/01/24 08:30:43;;;;;;;53.65;16.48;;;;;;;;;;5033309;28;20045;-78
2023/01/24 08:33:17;;;;;;;55.75;17.83;;;;;;;;;;5032914;28;20406;-78
2023/01/24 08:35:47;;;;;;;59.00;17.52;;;;;;;;;;5032190;28;20045;-78
2023/01/24 08:38:14;;;;;;;61.00;18.00;;;;;;;;;;5032377;28;20052;-78
2023/01/24 08:40:44;;;;;;;54.28;17.42;;;;;;;;;;5032641;28;20045;-78
2023/01/24 08:43:16;;;;;;;61.15;19.48;;;;;;;;;;5030469;28;20053;-77
2023/01/24 08:45:42;;;;;;;50.83;16.73;;;;;;;;;;5031860;28;20145;-78
2023/01/24 08:48:09;;;;;;;51.42;16.45;;;;;;;;;;5030576;28;20077;-78
2023/01/24 08:50:35;;;;;;;58.72;17.27;;;;;;;;;;5031831;28;20087;-78
2023/01/24 08:53:02;;;;;;;50.95;17.40;;;;;;;;;;5030653;28;20514;-78
2023/01/24 08:55:28;;;;;;;53.22;17.58;;;;;;;;;;5032225;28;20045;-78
2023/01/24 08:58:01;;;;;;;54.88;18.17;;;;;;;;;;5029499;28;20076;-78
2023/01/24 09:00:27;;;;;;;58.63;18.70;;;;;;;;;;5031374;28;20136;-79
2023/01/24 09:02:54;;;;;;;51.35;16.30;;;;;;;;;;5030090;28;20050;-78
2023/01/24 09:05:20;;;;;;;54.90;17.58;;;;;;;;;;5031528;28;20120;-78
2023/01/24 09:07:47;;;;;;;50.40;16.80;;;;;;;;;;5029821;28;20104;-79
2023/01/24 09:10:20;;;;;;;49.38;16.48;;;;;;;;;;5030526;28;20049;-79
2023/01/24 09:12:46;;;;;;;55.70;17.00;;;;;;;;;;5033533;28;20053;-80
2023/01/24 09:15:13;;;;;;;50.63;16.35;;;;;;;;;;5020269;28;20053;-79
2023/01/24 09:17:39;;;;;;;44.50;16.00;;;;;;;;;;5035154;28;20048;-78
2023/01/24 09:20:07;;;;;;;46.67;17.48;;;;;;;;;;5035625;28;20409;-79
2023/01/24 09:22:33;;;;;;;50.05;16.67;;;;;;;;;;5034551;28;20045;-79
2023/01/24 09:25:00;;;;;;;46.00;16.75;;;;;;;;;;5035225;28;20045;-79
2023/01/24 09:27:26;;;;;;;60.80;18.88;;;;;;;;;;5034221;28;20548;-80
2023/01/24 09:29:52;;;;;;;52.90;18.65;;;;;;;;;;5036651;28;20050;-79
2023/01/24 09:32:19;;;;;;;58.08;18.77;;;;;;;;;;5041515;28;20073;-79
2023/01/24 09:34:47;;;;;;;48.38;17.85;;;;;;;;;;5036744;28;20532;-79
2023/01/24 09:37:17;;;;;;;50.10;17.27;;;;;;;;;;5035333;28;20127;-79
2023/01/24 09:39:44;;;;;;;44.95;16.55;;;;;;;;;;5019259;28;20088;-79
2023/01/24 09:42:16;;;;;;;45.88;15.98;;;;;;;;;;5033977;28;20481;-79
2023/01/24 09:44:46;;;;;;;47.42;15.57;;;;;;;;;;5038375;28;20050;-79
2023/01/24 09:47:20;;;;;;;45.97;15.35;;;;;;;;;;5039420;28;20060;-78
2023/01/24 09:49:50;;;;;;;35.03;12.57;;;;;;;;;;5034344;28;20057;-78
2023/01/24 09:52:25;;;;;;;50.25;15.82;;;;;;;;;;5035233;28;20057;-79
2023/01/24 09:54:57;;;;;;;46.53;17.02;;;;;;;;;;5034266;28;20059;-80
2023/01/24 09:57:50;;;;;;;48.67;17.00;;;;;;;;;;5015336;28;20072;-80
2023/01/24 10:00:17;;;;;;;47.72;15.95;;;;;;;;;;5003886;28;20052;-80
2023/01/24 10:02:43;;;;;;;46.13;16.08;;;;;;;;;;5034249;28;20045;-79
2023/01/24 10:05:14;;;;;;;49.53;17.80;;;;;;;;;;5048991;28;20040;-79
2023/01/24 10:07:44;;;;;;;51.80;17.27;;;;;;;;;;5024093;28;20045;-80
2023/01/24 10:10:23;;;;;;;50.97;17.15;;;;;;;;;;5033830;28;20071;-79
2023/01/24 10:13:09;;;;;;;46.35;16.85;;;;;;;;;;5033025;28;20069;-78
2023/01/24 10:15:35;;;;;;;43.03;16.48;;;;;;;;;;5026754;28;20062;-79
2023/01/24 10:18:04;;;;;;;49.15;15.90;;;;;;;;;;5014559;28;20055;-79
2023/01/24 10:20:54;;;;;;;45.83;16.52;;;;;;;;;;5014510;28;20065;-79
2023/01/24 10:23:21;;;;;;;43.03;15.90;;;;;;;;;;5012557;28;20073;-80
2023/01/24 10:25:50;;;;;;;46.33;16.00;;;;;;;;;;4996501;28;20129;-79
2023/01/24 10:28:22;;;;;;;44.03;15.13;;;;;;;;;;5012221;28;20066;-79
2023/01/24 10:31:07;;;;;;;49.88;16.73;;;;;;;;;;5014277;28;20049;-79
2023/01/24 10:33:37;;;;;;;48.25;16.75;;;;;;;;;;5013670;28;20058;-79
2023/01/24 10:36:12;;;;;;;48.22;17.73;;;;;;;;;;5014488;28;20433;-80
2023/01/24 10:38:39;;;;;;;;;;;;;;;;;;5013932;28;20054;-78
2023/01/24 10:41:25;;;;;;;46.60;15.98;;;;;;;;;;5014716;28;19921;-79
2023/01/24 10:44:10;;;;;;;53.00;17.52;;;;;;;;;;4995930;28;20050;-79
2023/01/24 10:46:56;;;;;;;48.17;17.70;;;;;;;;;;5013818;28;20054;-79
2023/01/24 10:49:23;;;;;;;45.92;17.17;;;;;;;;;;5013081;28;20729;-79
2023/01/24 10:52:09;;;;;;;43.10;15.65;;;;;;;;;;5014294;28;20501;-79
2023/01/24 10:54:43;;;;;;;48.95;16.83;;;;;;;;;;4996651;28;20054;-79
2023/01/24 10:57:18;;;;;;;48.83;17.38;;;;;;;;;;5013546;28;20056;-79
2023/01/24 10:59:44;;;;;;;46.05;16.05;;;;;;;;;;5014343;28;20053;-79
2023/01/24 11:02:19;;;;;;;45.40;15.95;;;;;;;;;;5013682;28;20052;-78
2023/01/24 11:04:45;;;;;;;41.22;15.07;;;;;;;;;;5013097;28;20056;-79
2023/01/24 11:07:31;;;;;;;42.95;16.27;;;;;;;;;;4996953;28;20069;-79
2023/01/24 11:10:01;;;;;;;43.58;16.20;;;;;;;;;;5013327;28;20382;-78
2023/01/24 11:12:28;;;;;;;50.67;17.02;;;;;;;;;;4995303;28;20054;-79
2023/01/24 11:14:54;;;;;;;45.97;16.23;;;;;;;;;;5029280;28;20068;-79
2023/01/24 11:17:29;;;;;;;45.97;16.45;;;;;;;;;;5032049;28;20049;-79
2023/01/24 11:20:02;;;;;;;46.17;17.17;;;;;;;;;;5032624;28;20053;-79
2023/01/24 11:22:34;;;;;;;44.17;16.23;;;;;;;;;;5033248;28;20048;-79
2023/01/24 11:25:02;;;;;;;45.03;16.27;;;;;;;;;;5032345;28;20054;-80
2023/01/24 11:27:29;;;;;;;50.95;16.65;;;;;;;;;;5031122;28;20072;-79
2023/01/24 11:30:07;;;;;;;48.50;17.15;;;;;;;;;;5032272;28;20088;-79
2023/01/24 11:32:46;;;;;;;54.50;17.42;;;;;;;;;;5032297;28;20137;-79
2023/01/24 11:35:45;;;;;;;45.33;16.20;;;;;;;;;;5032182;28;20057;-79
2023/01/24 11:38:50;;;;;;;45.03;15.75;;;;;;;;;;4998336;28;20045;-79
2023/01/24 11:41:26;;;;;;;45.42;16.23;;;;;;;;;;4970620;28;20123;-79
2023/01/24 11:44:11;;;;;;;39.63;14.40;;;;;;;;;;4971203;28;20563;-80
2023/01/24 11:46:56;;;;;;;33.78;11.52;;;;;;;;;;5014767;28;20148;-79
2023/01/24 11:49:23;;;;;;;48.85;16.23;;;;;;;;;;5031340;28;20045;-79
2023/01/24 11:51:54;;;;;;;43.65;15.63;;;;;;;;;;5032882;28;20569;-79
2023/01/24 11:54:35;;;;;;;46.40;15.70;;;;;;;;;;5031688;28;20065;-79
2023/01/24 11:57:06;;;;;;;44.53;15.60;;;;;;;;;;5031509;28;20050;-79
2023/01/24 11:59:32;;;;;;;50.55;15.80;;;;;;;;;;5031169;28;20045;-79
2023/01/24 12:02:17;;;;;;;42.70;15.57;;;;;;;;;;5031728;28;20069;-79
2023/01/24 12:04:59;;;;;;;43.88;15.82;;;;;;;;;;5031742;28;20482;-79
2023/01/24 12:07:25;;;;;;;50.58;16.45;;;;;;;;;;5031139;28;20072;-80
2023/01/24 12:10:10;;;;;;;40.88;15.25;;;;;;;;;;5031366;28;20049;-80
2023/01/24 12:12:43;;;;;;;43.90;15.07;;;;;;;;;;5031623;28;20053;-80
2023/01/24 12:15:30;;;;;;;45.72;16.00;;;;;;;;;;5030615;28;20136;-79
2023/01/24 12:17:56;;;;;;;;;;;;;;;;;;5031957;28;20056;-79
2023/01/24 12:20:32;;;;;;;46.80;14.00;;;;;;;;;;5032724;28;19927;-79
2023/01/24 12:23:21;;;;;;;45.17;15.50;;;;;;;;;;5031874;28;20211;-79
2023/01/24 12:25:48;;;;;;;53.60;17.00;;;;;;;;;;5024323;28;20046;-80
2023/01/24 12:28:22;;;;;;;45.70;15.80;;;;;;;;;;5029981;28;20095;-79
2023/01/24 12:30:52;;;;;;;44.78;15.63;;;;;;;;;;5032300;28;20064;-79
2023/01/24 12:33:23;;;;;;;45.22;15.20;;;;;;;;;;5031248;28;20060;-79
2023/01/24 12:35:59;;;;;;;45.00;16.02;;;;;;;;;;5032029;28;20429;-78
2023/01/24 12:38:30;;;;;;;40.75;15.27;;;;;;;;;;5030668;28;20148;-79
2023/01/24 12:41:05;;;;;;;39.95;14.38;;;;;;;;;;5032995;28;20055;-79
2023/01/24 12:43:37;;;;;;;41.15;14.82;;;;;;;;;;5029027;28;20049;-79
2023/01/24 12:46:07;;;;;;;39.03;14.43;;;;;;;;;;5032419;28;20048;-79
2023/01/24 12:48:39;;;;;;;41.33;15.55;;;;;;;;;;5034057;28;20304;-80
2023/01/24 12:51:17;;;;;;;37.38;14.10;;;;;;;;;;5039659;28;20248;-79
2023/01/24 12:53:47;;;;;;;37.10;13.63;;;;;;;;;;5042501;28;20045;-79
2023/01/24 12:56:33;;;;;;;36.83;13.55;;;;;;;;;;5033653;28;20056;-79
2023/01/24 12:59:00;;;;;;;40.15;13.95;;;;;;;;;;5030990;28;20093;-78
2023/01/24 13:01:52;;;;;;;36.88;13.18;;;;;;;;;;5054967;28;20102;-79
2023/01/24 13:04:19;;;;;;;33.03;13.07;;;;;;;;;;5023423;28;20064;-79
2023/01/24 13:06:55;;;;;;;40.20;13.15;;;;;;;;;;5049860;28;20407;-79
2023/01/24 13:09:24;;;;;;;36.60;13.45;;;;;;;;;;5047109;28;20042;-79
2023/01/24 13:11:52;;;;;;;39.65;13.60;;;;;;;;;;5047166;28;20086;-80
2023/01/24 13:14:42;;;;;;;38.33;13.77;;;;;;;;;;5047938;28;20064;-79
2023/01/24 13:17:14;;;;;;;38.17;12.77;;;;;;;;;;5053548;28;20052;-79
2023/01/24 13:19:44;;;;;;;43.00;14.35;;;;;;;;;;5040713;28;20055;-79
2023/01/24 13:22:29;;;;;;;40.33;13.50;;;;;;;;;;5033192;28;20049;-78
2023/01/24 13:25:03;;;;;;;41.87;14.10;;;;;;;;;;5034865;28;20138;-80
2023/01/24 13:27:49;;;;;;;38.35;13.38;;;;;;;;;;5033730;28;20156;-80
2023/01/24 13:30:24;;;;;;;46.03;14.82;;;;;;;;;;5016503;28;20057;-80
2023/01/24 13:32:53;;;;;;;46.13;14.18;;;;;;;;;;5034536;28;20092;-79
2023/01/24 13:35:21;;;;;;;40.70;13.30;;;;;;;;;;5034318;28;20481;-79
2023/01/24 13:37:55;;;;;;;38.90;13.85;;;;;;;;;;5034146;28;20084;-79
2023/01/24 13:40:26;;;;;;;44.20;14.68;;;;;;;;;;5016582;28;20141;-78
2023/01/24 13:42:52;;;;;;;41.50;13.55;;;;;;;;;;5032676;28;20055;-78
2023/01/24 13:45:25;;;;;;;37.47;13.57;;;;;;;;;;5033484;28;20148;-78
2023/01/24 13:47:56;;;;;;;44.85;14.57;;;;;;;;;;5033091;28;20057;-78
2023/01/24 13:50:23;;;;;;;42.75;15.07;;;;;;;;;;5034304;28;20049;-78
2023/01/24 13:52:56;;;;;;;42.40;14.38;;;;;;;;;;5033293;28;20612;-78
2023/01/24 13:55:22;;;;;;;38.28;14.20;;;;;;;;;;5033402;28;20059;-78
2023/01/24 13:58:07;;;;;;;43.28;14.82;;;;;;;;;;5021425;28;20064;-79
2023/01/24 14:00:46;;;;;;;43.28;13.10;;;;;;;;;;5013226;28;20189;-79
2023/01/24 14:03:15;;;;;;;42.05;14.15;;;;;;;;;;5012742;28;20608;-78
2023/01/24 14:05:43;;;;;;;39.88;14.05;;;;;;;;;;5015418;28;20077;-78
2023/01/24 14:08:16;;;;;;;39.58;13.32;;;;;;;;;;5031495;28;20076;-78
2023/01/24 14:10:45;;;;;;;36.50;14.00;;;;;;;;;;5033706;28;20054;-79
2023/01/24 14:13:30;;;;;;;48.00;15.05;;;;;;;;;;5030492;28;20765;-78
2023/01/24 14:15:57;;;;;;;42.28;14.05;;;;;;;;;;5027962;28;20068;-79
2023/01/24 14:18:53;;;;;;;42.25;14.65;;;;;;;;;;5032709;28;20050;-77
2023/01/24 14:21:21;;;;;;;46.08;13.25;;;;;;;;;;5016192;28;20081;-78
2023/01/24 14:23:49;;;;;;;42.17;14.10;;;;;;;;;;5032487;28;20173;-78
2023/01/24 14:26:17;;;;;;;45.83;15.30;;;;;;;;;;5031718;28;20140;-80
2023/01/24 14:28:49;;;;;;;47.05;15.55;;;;;;;;;;5030209;28;20076;-78
2023/01/24 14:31:20;;;;;;;47.58;15.85;;;;;;;;;;5032129;28;20075;-78
2023/01/24 14:34:06;;;;;;;45.75;14.68;;;;;;;;;;5031327;28;20056;-78
2023/01/24 14:36:38;;;;;;;52.42;15.63;;;;;;;;;;5034219;28;20255;-77
2023/01/24 14:39:19;;;;;;;51.65;15.52;;;;;;;;;;5033728;28;20557;-79
2023/01/24 14:41:50;;;;;;;45.28;14.23;;;;;;;;;;5025393;28;20045;-78
2023/01/24 14:44:18;;;;;;;45.38;14.35;;;;;;;;;;5021398;28;20041;-77
2023/01/24 14:46:56;;;;;;;45.40;14.95;;;;;;;;;;5021472;28;20037;-78
2023/01/24 14:49:25;;;;;;;42.78;14.38;;;;;;;;;;5022193;28;20049;-79
2023/01/24 14:51:51;;;;;;;50.47;16.52;;;;;;;;;;5023500;28;20521;-78
2023/01/24 14:54:21;;;;;;;48.63;14.82;;;;;;;;;;5026289;28;20071;-78
2023/01/24 14:56:48;;;;;;;57.67;15.88;;;;;;;;;;5024083;28;20045;-79
2023/01/24 14:59:18;;;;;;;47.17;14.73;;;;;;;;;;5003417;28;20425;-80
2023/01/24 15:01:46;;;;;;;49.45;15.20;;;;;;;;;;5020953;28;20050;-78
2023/01/24 15:04:24;;;;;;;47.83;15.38;;;;;;;;;;5023646;28;20037;-79
2023/01/24 15:07:10;;;;;;;47.10;14.32;;;;;;;;;;5022253;28;20128;-80
2023/01/24 15:09:37;;;;;;;45.28;14.80;;;;;;;;;;5020852;28;20042;-79
2023/01/24 15:12:13;;;;;;;55.25;15.50;;;;;;;;;;5021392;28;20356;-79
2023/01/24 15:14:41;;;;;;;47.55;15.25;;;;;;;;;;5026750;28;20116;-80